Check out our new PWSWeather beta!
PWSweather.com
Personal Weather Stations
Station Observations
OBSERWACJEMETEO
Skórowo, SkorowoPL 76-230

SkórowoSkorowoPL 76-230

Lat: 54.5030556, Lon: 17.5277777

Elevation: 77

Station Type: WH2080

http://obserwacjemeteo.eu/

Latest ConditionsUpdated 11:50:02 AM GMT+01:01 Wednesday, Feb 26, 2020
Currently Today's Max Today's Min Today's Average
Temperature 43.9°F6.6°C 46.9°F8.3°C 38.3°F3.5°C 40.7°F4.8°C
Dew Point 29.6°F-1.3°C 32.1°F0.1°C 28.3°F-2.1°C 29.4°F-1.4°C
Winds 9.2 mph SW14.8 kmh SW 10.7 mph -17.2 kmh - - 7.5 mph 12.1 kmh
Wind Gusts 12.1 mph19.5 kmh 19.7 mph31.7 kmh - -
Humidity 57% 70% 50% 64%
Pressure 29.21 in989.2 mb 29.21 in989.2 mb 29.16 in987.5 mb -
Hour Temp Dew Point Humidity Winds Wind Gusts Pressure Precip Precip Rate Daily Precip Total
11:50 AM 43.9°F6.6°C 29.6°F-1.3°C 57% 9.2 mph SW14.8 kmh SW 12.1 mph19.5 kmh 29.21 in989.2 mb 0.00 in0.0 mm 0.00 in0.0 mm 0.00 in0.0 mm
11:40 AM 45.3°F7.4°C 31.4°F-0.3°C 58% 6.0 mph SSW9.7 kmh SSW 9.2 mph14.8 kmh 29.19 in988.5 mb 0.00 in0.0 mm 0.00 in0.0 mm 0.00 in0.0 mm
11:30 AM 43.7°F6.5°C 29.9°F-1.2°C 58% 6.0 mph SW9.7 kmh SW 15.9 mph25.6 kmh 29.20 in988.8 mb 0.00 in0.0 mm 0.00 in0.0 mm 0.00 in0.0 mm
11:20 AM 45.7°F7.6°C 28.6°F-1.9°C 51% 9.2 mph SW14.8 kmh SW 13.6 mph21.9 kmh 29.20 in988.8 mb 0.00 in0.0 mm 0.00 in0.0 mm 0.00 in0.0 mm
11:10 AM 45.1°F7.3°C 30.8°F-0.7°C 57% 7.6 mph SW12.2 kmh SW 19.7 mph31.7 kmh 29.20 in988.8 mb 0.00 in0.0 mm 0.00 in0.0 mm 0.00 in0.0 mm
11:00 AM 46.4°F8.0°C 28.8°F-1.8°C 50% 10.7 mph WSW17.2 kmh WSW 19.7 mph31.7 kmh 29.19 in988.5 mb 0.00 in0.0 mm 0.00 in0.0 mm 0.00 in0.0 mm
10:50 AM 45.9°F7.7°C 29.2°F-1.6°C 52% 4.5 mph SW7.2 kmh SW 13.6 mph21.9 kmh 29.19 in988.5 mb 0.00 in0.0 mm 0.00 in0.0 mm 0.00 in0.0 mm
10:40 AM 45.9°F7.7°C 28.8°F-1.8°C 51% 8.3 mph SW13.4 kmh SW 13.6 mph21.9 kmh 29.19 in988.5 mb 0.00 in0.0 mm 0.00 in0.0 mm 0.00 in0.0 mm
10:30 AM 46.0°F7.8°C 28.9°F-1.7°C 51% 7.6 mph SW12.2 kmh SW 11.4 mph18.3 kmh 29.18 in988.1 mb 0.00 in0.0 mm 0.00 in0.0 mm 0.00 in0.0 mm
10:20 AM 46.9°F8.3°C 29.8°F-1.2°C 51% 8.3 mph SW13.4 kmh SW 15.9 mph25.6 kmh 29.19 in988.5 mb 0.00 in0.0 mm 0.00 in0.0 mm 0.00 in0.0 mm
10:10 AM 46.6°F8.1°C 29.4°F-1.4°C 51% 10.7 mph SW17.2 kmh SW 15.9 mph25.6 kmh 29.18 in988.1 mb 0.00 in0.0 mm 0.00 in0.0 mm 0.00 in0.0 mm
10:00 AM 46.2°F7.9°C 29.6°F-1.3°C 52% 5.4 mph SW8.7 kmh SW 15.2 mph24.5 kmh 29.18 in988.1 mb 0.00 in0.0 mm 0.00 in0.0 mm 0.00 in0.0 mm
09:50 AM 45.1°F7.3°C 32.1°F0.1°C 60% 8.3 mph SW13.4 kmh SW 11.4 mph18.3 kmh 29.18 in988.1 mb 0.00 in0.0 mm 0.00 in0.0 mm 0.00 in0.0 mm
09:40 AM 44.1°F6.7°C 31.5°F-0.3°C 61% 9.2 mph SW14.8 kmh SW 13.6 mph21.9 kmh 29.18 in988.1 mb 0.00 in0.0 mm 0.00 in0.0 mm 0.00 in0.0 mm
09:30 AM 43.7°F6.5°C 31.5°F-0.3°C 62% 6.9 mph SW11.1 kmh SW 12.1 mph19.5 kmh 29.18 in988.1 mb 0.00 in0.0 mm 0.00 in0.0 mm 0.00 in0.0 mm
09:20 AM 43.3°F6.3°C 32.0°F0.0°C 64% 6.9 mph SW11.1 kmh SW 9.8 mph15.8 kmh 29.18 in988.1 mb 0.00 in0.0 mm 0.00 in0.0 mm 0.00 in0.0 mm
09:10 AM 42.3°F5.7°C 31.3°F-0.4°C 65% 6.0 mph SW9.7 kmh SW 10.7 mph17.2 kmh 29.18 in988.1 mb 0.00 in0.0 mm 0.00 in0.0 mm 0.00 in0.0 mm
09:00 AM 41.5°F5.3°C 31.0°F-0.6°C 66% 9.2 mph SW14.8 kmh SW 10.7 mph17.2 kmh 29.18 in988.1 mb 0.00 in0.0 mm 0.00 in0.0 mm 0.00 in0.0 mm
08:50 AM 41.2°F5.1°C 31.4°F-0.3°C 68% 6.0 mph SW9.7 kmh SW 15.2 mph24.5 kmh 29.18 in988.1 mb 0.00 in0.0 mm 0.00 in0.0 mm 0.00 in0.0 mm
08:40 AM 39.6°F4.2°C 30.6°F-0.8°C 70% 9.2 mph SW14.8 kmh SW 12.1 mph19.5 kmh 29.18 in988.1 mb 0.00 in0.0 mm 0.00 in0.0 mm 0.00 in0.0 mm
08:30 AM 38.7°F3.7°C 29.4°F-1.4°C 69% 6.9 mph SW11.1 kmh SW 12.1 mph19.5 kmh 29.18 in988.1 mb 0.00 in0.0 mm 0.00 in0.0 mm 0.00 in0.0 mm
08:20 AM 39.0°F3.9°C 29.0°F-1.7°C 67% 9.2 mph SW14.8 kmh SW 12.1 mph19.5 kmh 29.18 in988.1 mb 0.00 in0.0 mm 0.00 in0.0 mm 0.00 in0.0 mm
08:10 AM 39.0°F3.9°C 29.0°F-1.7°C 67% 9.2 mph SW14.8 kmh SW 13.0 mph20.9 kmh 29.17 in987.8 mb 0.00 in0.0 mm 0.00 in0.0 mm 0.00 in0.0 mm
08:00 AM 38.8°F3.8°C 28.8°F-1.8°C 67% 10.7 mph SW17.2 kmh SW 13.6 mph21.9 kmh 29.18 in988.1 mb 0.00 in0.0 mm 0.00 in0.0 mm 0.00 in0.0 mm
07:50 AM 38.7°F3.7°C 28.7°F-1.8°C 67% 8.3 mph SSW13.4 kmh SSW 13.6 mph21.9 kmh 29.17 in987.8 mb 0.00 in0.0 mm 0.00 in0.0 mm 0.00 in0.0 mm
07:40 AM 38.7°F3.7°C 28.7°F-1.8°C 67% 6.9 mph SW11.1 kmh SW 18.3 mph29.5 kmh 29.18 in988.1 mb 0.00 in0.0 mm 0.00 in0.0 mm 0.00 in0.0 mm
07:30 AM 38.5°F3.6°C 28.9°F-1.7°C 68% 6.9 mph SW11.1 kmh SW 11.4 mph18.3 kmh 29.17 in987.8 mb 0.00 in0.0 mm 0.00 in0.0 mm 0.00 in0.0 mm
07:20 AM 38.3°F3.5°C 28.7°F-1.8°C 68% 8.3 mph SW13.4 kmh SW 14.5 mph23.3 kmh 29.17 in987.8 mb 0.00 in0.0 mm 0.00 in0.0 mm 0.00 in0.0 mm
07:10 AM 38.5°F3.6°C 28.5°F-1.9°C 67% 9.8 mph SW15.8 kmh SW 17.4 mph28.0 kmh 29.17 in987.8 mb 0.00 in0.0 mm 0.00 in0.0 mm 0.00 in0.0 mm
07:00 AM 38.3°F3.5°C 29.0°F-1.7°C 69% 6.9 mph SSW11.1 kmh SSW 13.0 mph20.9 kmh 29.16 in987.5 mb 0.00 in0.0 mm 0.00 in0.0 mm 0.00 in0.0 mm
06:50 AM 38.3°F3.5°C 29.4°F-1.4°C 70% 9.2 mph SSW14.8 kmh SSW 13.6 mph21.9 kmh 29.16 in987.5 mb 0.00 in0.0 mm 0.00 in0.0 mm 0.00 in0.0 mm
06:40 AM 38.5°F3.6°C 29.2°F-1.6°C 69% 8.3 mph SW13.4 kmh SW 10.7 mph17.2 kmh 29.17 in987.8 mb 0.00 in0.0 mm 0.00 in0.0 mm 0.00 in0.0 mm
06:30 AM 38.5°F3.6°C 29.6°F-1.3°C 70% 6.9 mph SW11.1 kmh SW 11.4 mph18.3 kmh 29.17 in987.8 mb 0.00 in0.0 mm 0.00 in0.0 mm 0.00 in0.0 mm
06:20 AM 38.5°F3.6°C 29.6°F-1.3°C 70% 6.0 mph SW9.7 kmh SW 9.2 mph14.8 kmh 29.17 in987.8 mb 0.00 in0.0 mm 0.00 in0.0 mm 0.00 in0.0 mm
06:10 AM 38.3°F3.5°C 29.4°F-1.4°C 70% 6.0 mph SSW9.7 kmh SSW 6.9 mph11.1 kmh 29.16 in987.5 mb 0.00 in0.0 mm 0.00 in0.0 mm 0.00 in0.0 mm
06:00 AM 38.5°F3.6°C 29.6°F-1.3°C 70% 4.5 mph SW7.2 kmh SW 9.2 mph14.8 kmh 29.17 in987.8 mb 0.00 in0.0 mm 0.00 in0.0 mm 0.00 in0.0 mm
05:50 AM 38.7°F3.7°C 29.4°F-1.4°C 69% 7.6 mph SW12.2 kmh SW 11.4 mph18.3 kmh 29.17 in987.8 mb 0.00 in0.0 mm 0.00 in0.0 mm 0.00 in0.0 mm
05:40 AM 38.7°F3.7°C 29.4°F-1.4°C 69% 9.2 mph SSW14.8 kmh SSW 13.0 mph20.9 kmh 29.17 in987.8 mb 0.00 in0.0 mm 0.00 in0.0 mm 0.00 in0.0 mm
05:30 AM 38.7°F3.7°C 29.4°F-1.4°C 69% 6.9 mph SSW11.1 kmh SSW 14.5 mph23.3 kmh 29.17 in987.8 mb 0.00 in0.0 mm 0.00 in0.0 mm 0.00 in0.0 mm
05:20 AM 38.7°F3.7°C 29.4°F-1.4°C 69% 7.6 mph SW12.2 kmh SW 10.7 mph17.2 kmh 29.17 in987.8 mb 0.00 in0.0 mm 0.00 in0.0 mm 0.00 in0.0 mm
05:10 AM 38.7°F3.7°C 29.4°F-1.4°C 69% 8.3 mph SW13.4 kmh SW 12.1 mph19.5 kmh 29.17 in987.8 mb 0.00 in0.0 mm 0.00 in0.0 mm 0.00 in0.0 mm
05:00 AM 38.7°F3.7°C 29.4°F-1.4°C 69% 6.0 mph SW9.7 kmh SW 13.0 mph20.9 kmh 29.17 in987.8 mb 0.00 in0.0 mm 0.00 in0.0 mm 0.00 in0.0 mm
04:50 AM 38.8°F3.8°C 29.2°F-1.6°C 68% 6.0 mph SSW9.7 kmh SSW 10.7 mph17.2 kmh 29.17 in987.8 mb 0.00 in0.0 mm 0.00 in0.0 mm 0.00 in0.0 mm
04:40 AM 38.8°F3.8°C 29.2°F-1.6°C 68% 4.5 mph SW7.2 kmh SW 9.2 mph14.8 kmh 29.17 in987.8 mb 0.00 in0.0 mm 0.00 in0.0 mm 0.00 in0.0 mm
04:30 AM 39.0°F3.9°C 28.6°F-1.9°C 66% 6.0 mph SW9.7 kmh SW 8.3 mph13.4 kmh 29.17 in987.8 mb 0.00 in0.0 mm 0.00 in0.0 mm 0.00 in0.0 mm
04:20 AM 39.2°F4.0°C 28.4°F-2.0°C 65% 3.1 mph SW5.0 kmh SW 9.2 mph14.8 kmh 29.16 in987.5 mb 0.00 in0.0 mm 0.00 in0.0 mm 0.00 in0.0 mm
04:10 AM 39.4°F4.1°C 28.6°F-1.9°C 65% 6.0 mph S9.7 kmh S 12.1 mph19.5 kmh 29.18 in988.1 mb 0.00 in0.0 mm 0.00 in0.0 mm 0.00 in0.0 mm
04:00 AM 39.4°F4.1°C 28.6°F-1.9°C 65% 8.3 mph SW13.4 kmh SW 12.1 mph19.5 kmh 29.17 in987.8 mb 0.00 in0.0 mm 0.00 in0.0 mm 0.00 in0.0 mm
03:50 AM 39.6°F4.2°C 28.8°F-1.8°C 65% 7.6 mph SW12.2 kmh SW 11.4 mph18.3 kmh 29.17 in987.8 mb 0.00 in0.0 mm 0.00 in0.0 mm 0.00 in0.0 mm
03:40 AM 39.7°F4.3°C 29.0°F-1.7°C 65% 8.3 mph SSW13.4 kmh SSW 13.6 mph21.9 kmh 29.16 in987.5 mb 0.00 in0.0 mm 0.00 in0.0 mm 0.00 in0.0 mm
03:30 AM 39.9°F4.4°C 29.1°F-1.6°C 65% 9.8 mph SW15.8 kmh SW 15.2 mph24.5 kmh 29.17 in987.8 mb 0.00 in0.0 mm 0.00 in0.0 mm 0.00 in0.0 mm
03:20 AM 39.9°F4.4°C 29.1°F-1.6°C 65% 9.2 mph SW14.8 kmh SW 15.2 mph24.5 kmh 29.17 in987.8 mb 0.00 in0.0 mm 0.00 in0.0 mm 0.00 in0.0 mm
03:10 AM 39.9°F4.4°C 29.1°F-1.6°C 65% 7.6 mph SSW12.2 kmh SSW 12.1 mph19.5 kmh 29.18 in988.1 mb 0.00 in0.0 mm 0.00 in0.0 mm 0.00 in0.0 mm
03:00 AM 39.9°F4.4°C 29.1°F-1.6°C 65% 9.2 mph SSW14.8 kmh SSW 11.4 mph18.3 kmh 29.17 in987.8 mb 0.00 in0.0 mm 0.00 in0.0 mm 0.00 in0.0 mm
02:50 AM 39.9°F4.4°C 29.1°F-1.6°C 65% 6.9 mph SW11.1 kmh SW 11.4 mph18.3 kmh 29.18 in988.1 mb 0.00 in0.0 mm 0.00 in0.0 mm 0.00 in0.0 mm
02:40 AM 39.9°F4.4°C 28.7°F-1.8°C 64% 4.5 mph SW7.2 kmh SW 8.3 mph13.4 kmh 29.19 in988.5 mb 0.00 in0.0 mm 0.00 in0.0 mm 0.00 in0.0 mm
02:30 AM 40.1°F4.5°C 28.5°F-1.9°C 63% 3.1 mph SW5.0 kmh SW 13.0 mph20.9 kmh 29.18 in988.1 mb 0.00 in0.0 mm 0.00 in0.0 mm 0.00 in0.0 mm
02:20 AM 40.1°F4.5°C 28.9°F-1.7°C 64% 8.3 mph SW13.4 kmh SW 12.1 mph19.5 kmh 29.19 in988.5 mb 0.00 in0.0 mm 0.00 in0.0 mm 0.00 in0.0 mm
02:10 AM 39.7°F4.3°C 29.3°F-1.5°C 66% 7.6 mph SW12.2 kmh SW 9.2 mph14.8 kmh 29.19 in988.5 mb 0.00 in0.0 mm 0.00 in0.0 mm 0.00 in0.0 mm
02:00 AM 39.7°F4.3°C 29.3°F-1.5°C 66% 6.9 mph SSW11.1 kmh SSW 11.4 mph18.3 kmh 29.19 in988.5 mb 0.00 in0.0 mm 0.00 in0.0 mm 0.00 in0.0 mm
01:50 AM 39.7°F4.3°C 29.3°F-1.5°C 66% 9.2 mph S14.8 kmh S 11.4 mph18.3 kmh 29.19 in988.5 mb 0.00 in0.0 mm 0.00 in0.0 mm 0.00 in0.0 mm
01:40 AM 40.1°F4.5°C 28.9°F-1.7°C 64% 4.5 mph SW7.2 kmh SW 7.6 mph12.2 kmh 29.19 in988.5 mb 0.00 in0.0 mm 0.00 in0.0 mm 0.00 in0.0 mm
01:30 AM 40.6°F4.8°C 29.0°F-1.7°C 63% 6.0 mph SW9.7 kmh SW 16.8 mph27.0 kmh 29.19 in988.5 mb 0.00 in0.0 mm 0.00 in0.0 mm 0.00 in0.0 mm
01:20 AM 40.5°F4.7°C 28.9°F-1.7°C 63% 9.8 mph SW15.8 kmh SW 11.4 mph18.3 kmh 29.19 in988.5 mb 0.00 in0.0 mm 0.00 in0.0 mm 0.00 in0.0 mm
01:10 AM 40.5°F4.7°C 28.9°F-1.7°C 63% 6.9 mph SW11.1 kmh SW 11.4 mph18.3 kmh 29.19 in988.5 mb 0.00 in0.0 mm 0.00 in0.0 mm 0.00 in0.0 mm
01:00 AM 40.5°F4.7°C 28.9°F-1.7°C 63% 8.3 mph SW13.4 kmh SW 15.2 mph24.5 kmh 29.19 in988.5 mb 0.00 in0.0 mm 0.00 in0.0 mm 0.00 in0.0 mm
12:50 AM 40.1°F4.5°C 28.5°F-1.9°C 63% 8.3 mph SW13.4 kmh SW 13.0 mph20.9 kmh 29.19 in988.5 mb 0.00 in0.0 mm 0.00 in0.0 mm 0.00 in0.0 mm
12:40 AM 39.6°F4.2°C 28.8°F-1.8°C 65% 10.7 mph SW17.2 kmh SW 14.5 mph23.3 kmh 29.20 in988.8 mb 0.00 in0.0 mm 0.00 in0.0 mm 0.00 in0.0 mm
12:30 AM 38.8°F3.8°C 28.5°F-1.9°C 66% 9.2 mph SSW14.8 kmh SSW 13.6 mph21.9 kmh 29.19 in988.5 mb 0.00 in0.0 mm 0.00 in0.0 mm 0.00 in0.0 mm
12:20 AM 38.8°F3.8°C 28.5°F-1.9°C 66% 6.9 mph SW11.1 kmh SW 13.6 mph21.9 kmh 29.19 in988.5 mb 0.00 in0.0 mm 0.00 in0.0 mm 0.00 in0.0 mm
12:10 AM 39.0°F3.9°C 28.3°F-2.1°C 65% 6.0 mph SW9.7 kmh SW 9.2 mph14.8 kmh 29.20 in988.8 mb 0.00 in0.0 mm 0.00 in0.0 mm 0.00 in0.0 mm
12:00 AM 39.2°F4.0°C 28.8°F-1.8°C 66% 6.9 mph SW11.1 kmh SW 9.8 mph15.8 kmh 29.20 in988.8 mb 0.00 in0.0 mm 0.00 in0.0 mm 0.00 in0.0 mm